Time;durP1;ratioP1;P1;durP2;ratioP2;P2;SDS_P1;SDS_P2;PMS_P1;PMS_P2;Temp;Humidity;BMP_temperature;BMP_pressure;BME280_temperature;BME280_humidity;BME280_pressure;Samples;Min_cycle;Max_cycle;Signal;HPM_P1;HPM_P2
2022/03/14 00:00:50;;;;;;;;;;;23.80;38.50;;;;;;1580780;74;790;-64
2022/03/14 00:02:52;;;;;;;;;;;23.80;38.50;;;;;;1579773;74;758;-65
2022/03/14 00:04:55;;;;;;;;;;;23.90;38.60;;;;;;1580740;74;857;-66
2022/03/14 00:06:57;;;;;;;;;;;23.90;38.60;;;;;;1576538;74;1130;-63
2022/03/14 00:09:06;;;;;;;;;;;23.90;38.60;;;;;;1537216;76;1899;-67
2022/03/14 00:11:03;;;;;;;;;;;23.90;38.60;;;;;;1529500;77;1645;-65
2022/03/14 00:13:07;;;;;;;;;;;23.90;38.60;;;;;;1576426;74;685;-65
2022/03/14 00:15:10;;;;;;;;;;;23.90;38.60;;;;;;1571078;74;1407;-65
2022/03/14 00:17:14;;;;;;;;;;;23.90;38.60;;;;;;1576334;74;1154;-66
2022/03/14 00:19:15;;;;;;;;;;;23.90;38.60;;;;;;1541428;76;774;-68
2022/03/14 00:21:21;;;;;;;;;;;23.90;38.60;;;;;;1542368;76;728;-65
2022/03/14 00:23:26;;;;;;;;;;;23.90;38.60;;;;;;1531906;77;771;-66
2022/03/14 00:25:28;;;;;;;;;;;23.90;38.70;;;;;;1574545;74;1685;-66
2022/03/14 00:27:29;;;;;;;;;;;23.90;38.70;;;;;;1580755;74;1137;-65
2022/03/14 00:29:31;;;;;;;;;;;23.90;38.80;;;;;;1580955;74;1933;-65
2022/03/14 00:31:34;;;;;;;;;;;23.90;38.80;;;;;;1580841;74;760;-65
2022/03/14 00:33:36;;;;;;;;;;;23.90;38.80;;;;;;1579058;74;727;-67
2022/03/14 00:35:39;;;;;;;;;;;23.90;38.80;;;;;;1580633;74;737;-64
2022/03/14 00:37:41;;;;;;;;;;;23.90;38.80;;;;;;1577451;74;1155;-66
2022/03/14 00:39:44;;;;;;;;;;;23.90;38.80;;;;;;1580934;74;795;-66
2022/03/14 00:41:46;;;;;;;;;;;23.90;38.90;;;;;;1579749;74;747;-65
2022/03/14 00:43:48;;;;;;;;;;;23.90;38.90;;;;;;1579689;74;738;-66
2022/03/14 00:45:50;;;;;;;;;;;23.90;38.90;;;;;;1576513;74;812;-64
2022/03/14 00:47:52;;;;;;;;;;;23.90;38.90;;;;;;1580937;74;1145;-66
2022/03/14 00:49:55;;;;;;;;;;;23.90;38.90;;;;;;1576729;74;1913;-67
2022/03/14 00:51:57;;;;;;;;;;;23.90;38.90;;;;;;1581228;74;821;-65
2022/03/14 00:53:59;;;;;;;;;;;23.80;38.90;;;;;;1596490;74;675;-65
2022/03/14 00:56:01;;;;;;;;;;;23.90;38.90;;;;;;1573582;75;712;-65
2022/03/14 00:58:03;;;;;;;;;;;23.90;38.90;;;;;;1573425;75;1159;-65
2022/03/14 01:00:06;;;;;;;;;;;23.90;38.90;;;;;;1573706;75;700;-65
2022/03/14 01:02:09;;;;;;;;;;;23.90;38.90;;;;;;1572420;75;637;-65
2022/03/14 01:04:11;;;;;;;;;;;23.90;39.00;;;;;;1573126;74;708;-64
2022/03/14 01:06:13;;;;;;;;;;;23.90;39.00;;;;;;1600998;74;1186;-64
2022/03/14 01:08:15;;;;;;;;;;;23.90;39.00;;;;;;1601261;74;858;-64
2022/03/14 01:10:17;;;;;;;;;;;23.90;39.10;;;;;;1601547;74;1926;-65
2022/03/14 01:12:19;;;;;;;;;;;23.90;39.00;;;;;;1596649;74;755;-64
2022/03/14 01:14:21;;;;;;;;;;;23.90;39.10;;;;;;1587478;74;785;-65
2022/03/14 01:16:23;;;;;;;;;;;23.90;39.10;;;;;;1601491;74;1059;-64
2022/03/14 01:18:25;;;;;;;;;;;23.90;39.10;;;;;;1601549;74;760;-64
2022/03/14 01:20:27;;;;;;;;;;;23.90;39.20;;;;;;1596358;73;732;-65
2022/03/14 01:22:29;;;;;;;;;;;23.90;39.10;;;;;;1582206;74;843;-65
2022/03/14 01:24:35;;;;;;;;;;;23.90;39.20;;;;;;1589553;74;673;-64
2022/03/14 01:26:34;;;;;;;;;;;23.90;39.20;;;;;;1572926;75;1639;-66
2022/03/14 01:28:36;;;;;;;;;;;23.80;39.20;;;;;;1573504;75;780;-66
2022/03/14 01:30:43;;;;;;;;;;;23.90;39.20;;;;;;1571187;75;1957;-64
2022/03/14 01:32:42;;;;;;;;;;;23.90;39.20;;;;;;1567332;74;1433;-64
2022/03/14 01:34:44;;;;;;;;;;;23.80;39.20;;;;;;1595403;74;770;-65
2022/03/14 01:36:46;;;;;;;;;;;23.90;39.30;;;;;;1582185;73;2108;-65
2022/03/14 01:38:48;;;;;;;;;;;23.90;39.30;;;;;;1575439;75;674;-64
2022/03/14 01:40:49;;;;;;;;;;;23.80;39.20;;;;;;1572890;74;671;-65
2022/03/14 01:42:51;;;;;;;;;;;23.90;39.20;;;;;;1575660;75;677;-65
2022/03/14 01:44:53;;;;;;;;;;;24.00;39.30;;;;;;1575709;75;752;-65
2022/03/14 01:46:55;;;;;;;;;;;23.90;39.30;;;;;;1575695;74;1175;-66
2022/03/14 01:48:58;;;;;;;;;;;23.90;39.30;;;;;;1574446;75;773;-64
2022/03/14 01:51:00;;;;;;;;;;;23.90;39.40;;;;;;1575490;75;1941;-65
2022/03/14 01:53:02;;;;;;;;;;;23.90;39.40;;;;;;1575895;72;722;-67
2022/03/14 01:55:04;;;;;;;;;;;23.90;39.40;;;;;;1574483;75;724;-67
2022/03/14 01:57:06;;;;;;;;;;;23.90;39.40;;;;;;1575441;74;1135;-67
2022/03/14 01:59:08;;;;;;;;;;;23.90;39.40;;;;;;1575707;75;642;-64
2022/03/14 02:01:10;;;;;;;;;;;23.80;39.30;;;;;;1575602;75;719;-65
2022/03/14 02:03:12;;;;;;;;;;;23.90;39.40;;;;;;1574666;75;651;-65
2022/03/14 02:05:16;;;;;;;;;;;23.90;39.40;;;;;;1575530;75;778;-65
2022/03/14 02:07:18;;;;;;;;;;;23.80;39.40;;;;;;1547203;75;1199;-65
2022/03/14 02:09:20;;;;;;;;;;;23.90;39.50;;;;;;1547572;77;1929;-65
2022/03/14 02:11:23;;;;;;;;;;;23.80;39.40;;;;;;1547376;77;674;-65
2022/03/14 02:13:25;;;;;;;;;;;23.90;39.50;;;;;;1570709;75;758;-66
2022/03/14 02:15:27;;;;;;;;;;;23.70;39.40;;;;;;1574317;75;710;-68
2022/03/14 02:17:29;;;;;;;;;;;23.70;39.40;;;;;;1574364;74;1123;-65
2022/03/14 02:19:32;;;;;;;;;;;23.80;39.40;;;;;;1574321;75;703;-66
2022/03/14 02:21:34;;;;;;;;;;;23.70;39.50;;;;;;1575000;75;733;-67
2022/03/14 02:23:36;;;;;;;;;;;23.70;39.50;;;;;;1575575;75;784;-69
2022/03/14 02:25:39;;;;;;;;;;;23.70;39.50;;;;;;1574366;75;714;-65
2022/03/14 02:27:41;;;;;;;;;;;23.70;39.60;;;;;;1574218;74;1508;-65
2022/03/14 02:29:43;;;;;;;;;;;23.80;39.60;;;;;;1575510;75;1930;-65
2022/03/14 02:31:45;;;;;;;;;;;23.80;39.50;;;;;;1575524;75;713;-65
2022/03/14 02:33:47;;;;;;;;;;;23.70;39.60;;;;;;1574508;75;652;-65
2022/03/14 02:35:49;;;;;;;;;;;23.70;39.60;;;;;;1575538;75;678;-65
2022/03/14 02:37:51;;;;;;;;;;;23.80;39.60;;;;;;1575559;75;1130;-65
2022/03/14 02:39:53;;;;;;;;;;;23.90;39.70;;;;;;1569337;75;774;-64
2022/03/14 02:41:55;;;;;;;;;;;23.80;39.60;;;;;;1555286;75;703;-66
2022/03/14 02:43:57;;;;;;;;;;;23.80;39.60;;;;;;1575545;75;788;-63
2022/03/14 02:45:59;;;;;;;;;;;23.90;39.50;;;;;;1575383;75;730;-65
2022/03/14 02:48:01;;;;;;;;;;;23.90;39.60;;;;;;1575517;74;1157;-63
2022/03/14 02:50:03;;;;;;;;;;;23.80;39.50;;;;;;1575443;75;1920;-63
2022/03/14 02:52:05;;;;;;;;;;;23.80;39.60;;;;;;1574508;75;738;-63
2022/03/14 02:54:08;;;;;;;;;;;23.80;39.60;;;;;;1574497;75;770;-64
2022/03/14 02:56:10;;;;;;;;;;;23.80;39.60;;;;;;1575475;75;791;-64
2022/03/14 02:58:12;;;;;;;;;;;23.80;39.70;;;;;;1565003;74;1072;-66
2022/03/14 03:00:14;;;;;;;;;;;23.70;39.70;;;;;;1567856;75;754;-66
2022/03/14 03:02:18;;;;;;;;;;;23.70;39.70;;;;;;1570443;75;734;-66
2022/03/14 03:04:20;;;;;;;;;;;23.80;39.70;;;;;;1575533;75;952;-63
2022/03/14 03:06:26;;;;;;;;;;;23.80;39.70;;;;;;1575506;75;726;-63
2022/03/14 03:08:25;;;;;;;;;;;23.80;39.80;;;;;;1573222;75;1627;-64
2022/03/14 03:10:28;;;;;;;;;;;23.70;39.80;;;;;;1573963;75;1902;-65
2022/03/14 03:12:31;;;;;;;;;;;23.70;39.80;;;;;;1564197;75;672;-64
2022/03/14 03:14:35;;;;;;;;;;;23.80;39.80;;;;;;1568414;74;658;-66
2022/03/14 03:16:37;;;;;;;;;;;23.70;39.80;;;;;;1568403;76;1157;-64
2022/03/14 03:18:39;;;;;;;;;;;23.70;39.90;;;;;;1570129;75;687;-65
2022/03/14 03:20:42;;;;;;;;;;;23.80;39.80;;;;;;1575735;75;710;-66
2022/03/14 03:22:44;;;;;;;;;;;23.80;39.90;;;;;;1575550;75;741;-64
2022/03/14 03:24:46;;;;;;;;;;;23.70;39.90;;;;;;1574749;75;707;-65
2022/03/14 03:26:47;;;;;;;;;;;23.80;39.90;;;;;;1575660;74;1142;-64
2022/03/14 03:28:49;;;;;;;;;;;23.80;39.90;;;;;;1575663;75;705;-63
2022/03/14 03:30:51;;;;;;;;;;;23.80;39.80;;;;;;1575646;75;1950;-67
2022/03/14 03:32:53;;;;;;;;;;;23.90;39.90;;;;;;1574871;75;698;-64
2022/03/14 03:34:55;;;;;;;;;;;23.90;39.80;;;;;;1549031;77;632;-65
2022/03/14 03:36:57;;;;;;;;;;;24.00;39.90;;;;;;1549094;75;1113;-64
2022/03/14 03:38:59;;;;;;;;;;;24.00;39.80;;;;;;1549028;77;773;-65
2022/03/14 03:41:01;;;;;;;;;;;24.00;39.70;;;;;;1592207;74;727;-65
2022/03/14 03:43:03;;;;;;;;;;;24.00;39.70;;;;;;1586087;74;721;-66
2022/03/14 03:45:05;;;;;;;;;;;24.00;39.90;;;;;;1575522;75;742;-66
2022/03/14 03:47:07;;;;;;;;;;;23.90;40.00;;;;;;1575612;74;1126;-65
2022/03/14 03:49:09;;;;;;;;;;;23.80;40.10;;;;;;1575628;75;729;-66
2022/03/14 03:51:11;;;;;;;;;;;23.80;40.40;;;;;;1574606;75;1946;-63
2022/03/14 03:53:13;;;;;;;;;;;23.70;40.60;;;;;;1575565;75;694;-63
2022/03/14 03:55:15;;;;;;;;;;;23.70;40.70;;;;;;1575094;75;787;-63
2022/03/14 03:57:17;;;;;;;;;;;23.70;41.00;;;;;;1574648;74;1111;-64
2022/03/14 03:59:19;;;;;;;;;;;23.70;41.10;;;;;;1575589;75;780;-64
2022/03/14 04:01:23;;;;;;;;;;;23.60;41.10;;;;;;1575527;75;931;-64
2022/03/14 04:03:24;;;;;;;;;;;23.60;41.30;;;;;;1575420;75;1255;-65
2022/03/14 04:05:27;;;;;;;;;;;23.70;41.40;;;;;;1575172;75;722;-67
2022/03/14 04:07:31;;;;;;;;;;;23.60;41.30;;;;;;1575609;74;1163;-65
2022/03/14 04:09:33;;;;;;;;;;;23.60;41.20;;;;;;1575647;75;742;-66
2022/03/14 04:11:41;;;;;;;;;;;23.60;41.30;;;;;;1575541;75;1938;-68
2022/03/14 04:13:40;;;;;;;;;;;23.60;41.20;;;;;;1574557;75;1208;-69
2022/03/14 04:15:54;;;;;;;;;;;23.60;41.50;;;;;;1574627;75;720;-65
2022/03/14 04:18:00;;;;;;;;;;;23.60;41.50;;;;;;1575407;74;1191;-66
2022/03/14 04:20:00;;;;;;;;;;;23.70;41.60;;;;;;1574246;74;1093;-65
2022/03/14 04:22:02;;;;;;;;;;;23.60;41.30;;;;;;1572698;74;772;-65
2022/03/14 04:24:06;;;;;;;;;;;23.70;41.50;;;;;;1574931;75;710;-65
2022/03/14 04:26:08;;;;;;;;;;;23.60;41.50;;;;;;1562196;75;707;-67
2022/03/14 04:28:10;;;;;;;;;;;23.60;41.60;;;;;;1575445;74;1114;-66
2022/03/14 04:30:13;;;;;;;;;;;23.70;41.60;;;;;;1557961;75;1942;-69
2022/03/14 04:32:15;;;;;;;;;;;23.70;41.70;;;;;;1559026;75;721;-64
2022/03/14 04:34:17;;;;;;;;;;;23.70;41.70;;;;;;1566567;75;690;-67
2022/03/14 04:36:19;;;;;;;;;;;23.60;41.50;;;;;;1575486;75;730;-65
2022/03/14 04:38:21;;;;;;;;;;;23.70;41.60;;;;;;1575433;75;1193;-66
2022/03/14 04:40:22;;;;;;;;;;;23.70;41.50;;;;;;1578632;74;786;-65
2022/03/14 04:42:24;;;;;;;;;;;23.70;41.40;;;;;;1572716;75;1039;-66
2022/03/14 04:44:26;;;;;;;;;;;23.70;41.50;;;;;;1567696;75;704;-65
2022/03/14 04:46:28;;;;;;;;;;;23.70;41.40;;;;;;1572179;75;691;-65
2022/03/14 04:48:30;;;;;;;;;;;23.70;41.50;;;;;;1561387;75;1078;-64
2022/03/14 04:50:36;;;;;;;;;;;23.60;41.30;;;;;;1570120;75;1890;-66
2022/03/14 04:52:38;;;;;;;;;;;23.70;41.30;;;;;;1575579;75;765;-66
2022/03/14 04:54:39;;;;;;;;;;;23.70;41.40;;;;;;1574347;75;682;-65
2022/03/14 04:56:41;;;;;;;;;;;23.70;41.40;;;;;;1575402;75;1157;-68
2022/03/14 04:58:43;;;;;;;;;;;23.70;41.30;;;;;;1575565;75;703;-67
2022/03/14 05:00:45;;;;;;;;;;;23.70;41.30;;;;;;1575577;75;697;-65
2022/03/14 05:02:47;;;;;;;;;;;23.70;41.30;;;;;;1574654;75;691;-63
2022/03/14 05:04:49;;;;;;;;;;;23.70;41.30;;;;;;1575588;75;675;-64
2022/03/14 05:06:51;;;;;;;;;;;23.70;41.30;;;;;;1575560;74;1167;-65
2022/03/14 05:08:53;;;;;;;;;;;23.70;41.30;;;;;;1575730;75;627;-66
2022/03/14 05:10:56;;;;;;;;;;;23.70;41.30;;;;;;1575527;75;1937;-64
2022/03/14 05:12:59;;;;;;;;;;;23.70;41.30;;;;;;1575266;75;715;-67
2022/03/14 05:15:02;;;;;;;;;;;23.70;41.40;;;;;;1574233;75;735;-65
2022/03/14 05:17:04;;;;;;;;;;;23.70;41.30;;;;;;1574239;74;1112;-65
2022/03/14 05:19:06;;;;;;;;;;;23.70;41.30;;;;;;1574331;75;745;-64
2022/03/14 05:21:07;;;;;;;;;;;23.70;41.30;;;;;;1573257;75;794;-66
2022/03/14 05:23:09;;;;;;;;;;;23.70;41.40;;;;;;1575632;75;643;-66
2022/03/14 05:25:11;;;;;;;;;;;23.70;41.60;;;;;;1574645;75;723;-67
2022/03/14 05:27:13;;;;;;;;;;;23.70;41.60;;;;;;1575499;74;1064;-68
2022/03/14 05:29:15;;;;;;;;;;;23.70;41.60;;;;;;1575455;75;709;-66
2022/03/14 05:31:20;;;;;;;;;;;23.70;41.60;;;;;;1574992;75;1914;-69
2022/03/14 05:33:21;;;;;;;;;;;23.70;41.80;;;;;;1567518;74;1213;-65
2022/03/14 05:35:23;;;;;;;;;;;23.80;41.90;;;;;;1575235;75;765;-65
2022/03/14 05:37:25;;;;;;;;;;;23.80;41.80;;;;;;1575274;74;1075;-65
2022/03/14 05:39:27;;;;;;;;;;;23.70;41.60;;;;;;1575770;74;771;-66
2022/03/14 05:41:29;;;;;;;;;;;23.70;41.60;;;;;;1577451;74;706;-66
2022/03/14 05:43:36;;;;;;;;;;;23.80;41.70;;;;;;1574568;75;715;-71
2022/03/14 05:45:35;;;;;;;;;;;23.80;41.50;;;;;;1574812;75;1111;-71
2022/03/14 05:47:37;;;;;;;;;;;23.80;41.30;;;;;;1573024;74;1204;-73
2022/03/14 05:49:38;;;;;;;;;;;24.10;41.00;;;;;;1582130;74;661;-71
2022/03/14 05:51:40;;;;;;;;;;;24.10;40.50;;;;;;1566470;74;1939;-66
2022/03/14 05:53:42;;;;;;;;;;;24.20;40.40;;;;;;1595858;73;772;-69
2022/03/14 05:55:44;;;;;;;;;;;24.20;40.70;;;;;;1574769;74;783;-66
2022/03/14 05:57:46;;;;;;;;;;;24.00;40.60;;;;;;1576621;74;1129;-66
2022/03/14 05:59:51;;;;;;;;;;;24.00;40.50;;;;;;1585638;74;767;-66
2022/03/14 06:01:52;;;;;;;;;;;24.10;40.50;;;;;;1587070;74;679;-69
2022/03/14 06:03:54;;;;;;;;;;;24.10;40.30;;;;;;1576672;74;724;-66
2022/03/14 06:05:56;;;;;;;;;;;24.20;40.20;;;;;;1570849;74;698;-65
2022/03/14 06:07:58;;;;;;;;;;;24.20;40.10;;;;;;1575147;74;1108;-64
2022/03/14 06:10:00;;;;;;;;;;;24.20;40.00;;;;;;1575081;75;822;-69
2022/03/14 06:12:02;;;;;;;;;;;24.20;39.90;;;;;;1575157;75;1930;-64
2022/03/14 06:14:04;;;;;;;;;;;24.30;40.10;;;;;;1556842;75;717;-67
2022/03/14 06:16:06;;;;;;;;;;;24.30;39.90;;;;;;1549037;77;798;-66
2022/03/14 06:18:07;;;;;;;;;;;24.40;39.70;;;;;;1548967;77;1171;-67
2022/03/14 06:20:10;;;;;;;;;;;24.50;39.50;;;;;;1562684;75;731;-67
2022/03/14 06:22:12;;;;;;;;;;;24.50;39.30;;;;;;1575394;75;721;-66
2022/03/14 06:24:14;;;;;;;;;;;24.50;39.10;;;;;;1574161;75;783;-67
2022/03/14 06:26:16;;;;;;;;;;;24.50;39.00;;;;;;1567585;75;771;-69
2022/03/14 06:28:19;;;;;;;;;;;24.50;38.90;;;;;;1549015;77;1078;-67
2022/03/14 06:30:21;;;;;;;;;;;24.50;38.80;;;;;;1548890;77;829;-64
2022/03/14 06:32:23;;;;;;;;;;;24.50;38.90;;;;;;1562208;75;1917;-67
2022/03/14 06:34:26;;;;;;;;;;;24.50;38.90;;;;;;1575563;75;718;-64
2022/03/14 06:36:28;;;;;;;;;;;24.40;38.70;;;;;;1574926;75;737;-66
2022/03/14 06:38:32;;;;;;;;;;;24.40;38.50;;;;;;1570956;74;1161;-65
2022/03/14 06:40:33;;;;;;;;;;;24.30;38.40;;;;;;1562665;74;1429;-64
2022/03/14 06:42:41;;;;;;;;;;;24.30;38.20;;;;;;1575249;75;709;-63
2022/03/14 06:44:39;;;;;;;;;;;24.20;38.00;;;;;;1573335;75;1544;-66
2022/03/14 06:46:41;;;;;;;;;;;24.20;37.80;;;;;;1571347;74;1115;-66
2022/03/14 06:48:44;;;;;;;;;;;24.20;37.60;;;;;;1575154;75;759;-65
2022/03/14 06:50:46;;;;;;;;;;;24.20;37.50;;;;;;1574275;75;699;-67
2022/03/14 06:52:48;;;;;;;;;;;24.20;37.30;;;;;;1562109;75;1931;-67
2022/03/14 06:54:50;;;;;;;;;;;24.10;37.20;;;;;;1574472;75;792;-66
2022/03/14 06:56:52;;;;;;;;;;;24.10;37.00;;;;;;1568416;75;1151;-65
2022/03/14 06:58:54;;;;;;;;;;;24.10;36.80;;;;;;1565483;75;669;-64
2022/03/14 07:00:57;;;;;;;;;;;24.00;36.50;;;;;;1575689;75;839;-66
2022/03/14 07:02:59;;;;;;;;;;;24.00;36.30;;;;;;1575132;75;729;-67
2022/03/14 07:05:01;;;;;;;;;;;24.00;36.30;;;;;;1574247;75;794;-67
2022/03/14 07:07:04;;;;;;;;;;;23.90;36.10;;;;;;1562205;75;1114;-65
2022/03/14 07:09:07;;;;;;;;;;;24.00;36.10;;;;;;1575422;75;643;-65
2022/03/14 07:11:09;;;;;;;;;;;23.90;35.90;;;;;;1575480;75;1906;-66
2022/03/14 07:13:11;;;;;;;;;;;23.90;35.90;;;;;;1574432;74;784;-65
2022/03/14 07:15:14;;;;;;;;;;;23.90;35.90;;;;;;1575407;75;771;-67
2022/03/14 07:17:15;;;;;;;;;;;23.90;35.70;;;;;;1575430;75;1162;-65
2022/03/14 07:19:17;;;;;;;;;;;23.80;35.60;;;;;;1575502;75;715;-68
2022/03/14 07:21:19;;;;;;;;;;;23.80;35.50;;;;;;1575626;75;756;-64
2022/03/14 07:23:21;;;;;;;;;;;23.70;35.50;;;;;;1574178;75;705;-66
2022/03/14 07:25:25;;;;;;;;;;;23.70;35.50;;;;;;1574666;75;638;-65
2022/03/14 07:27:27;;;;;;;;;;;23.70;35.30;;;;;;1572608;74;1112;-66
2022/03/14 07:29:29;;;;;;;;;;;23.70;35.20;;;;;;1562116;75;743;-67
2022/03/14 07:31:31;;;;;;;;;;;23.70;35.30;;;;;;1565225;75;1924;-65
2022/03/14 07:33:33;;;;;;;;;;;23.70;35.20;;;;;;1575362;75;793;-67
2022/03/14 07:35:39;;;;;;;;;;;23.60;35.10;;;;;;1575277;75;726;-66
2022/03/14 07:37:39;;;;;;;;;;;23.60;35.10;;;;;;1568903;72;221429;-69
2022/03/14 07:39:40;;;;;;;;;;;23.70;35.20;;;;;;1560335;75;692;-71
2022/03/14 07:41:42;;;;;;;;;;;23.60;35.10;;;;;;1541477;75;1173;-69
2022/03/14 07:43:44;;;;;;;;;;;23.60;34.90;;;;;;1537265;77;719;-69
2022/03/14 07:45:46;;;;;;;;;;;23.60;34.90;;;;;;1536921;77;832;-70
2022/03/14 07:47:48;;;;;;;;;;;23.60;34.80;;;;;;1534484;76;763;-70
2022/03/14 07:49:50;;;;;;;;;;;23.50;34.80;;;;;;1533108;77;773;-70
2022/03/14 07:51:52;;;;;;;;;;;23.60;34.70;;;;;;1529312;76;1944;-70
2022/03/14 07:53:54;;;;;;;;;;;23.60;34.70;;;;;;1533702;76;724;-70
2022/03/14 07:55:56;;;;;;;;;;;23.50;34.70;;;;;;1530320;77;723;-70
2022/03/14 07:57:58;;;;;;;;;;;23.50;34.60;;;;;;1530454;77;750;-70
2022/03/14 08:00:00;;;;;;;;;;;23.50;34.50;;;;;;1533733;77;766;-70
2022/03/14 08:02:02;;;;;;;;;;;23.50;34.40;;;;;;1536849;76;1114;-70
2022/03/14 08:04:04;;;;;;;;;;;23.50;34.40;;;;;;1523671;76;727;-70
2022/03/14 08:06:07;;;;;;;;;;;23.40;34.20;;;;;;1537193;77;764;-69
2022/03/14 08:08:09;;;;;;;;;;;23.40;34.20;;;;;;1537210;77;698;-70
2022/03/14 08:10:12;;;;;;;;;;;23.50;34.20;;;;;;1537110;77;796;-70
2022/03/14 08:12:13;;;;;;;;;;;23.40;34.10;;;;;;1541903;76;1923;-70
2022/03/14 08:14:15;;;;;;;;;;;23.40;34.10;;;;;;1542062;77;798;-70
2022/03/14 08:16:17;;;;;;;;;;;23.40;34.00;;;;;;1544818;77;723;-70
2022/03/14 08:18:19;;;;;;;;;;;23.40;34.00;;;;;;1544196;77;769;-70
2022/03/14 08:20:22;;;;;;;;;;;23.40;33.90;;;;;;1544754;76;798;-70
2022/03/14 08:22:24;;;;;;;;;;;23.50;34.00;;;;;;1544126;76;1156;-70
2022/03/14 08:24:26;;;;;;;;;;;23.50;34.10;;;;;;1544340;76;708;-69
2022/03/14 08:26:28;;;;;;;;;;;23.50;34.10;;;;;;1531863;76;753;-70
2022/03/14 08:28:31;;;;;;;;;;;23.50;34.00;;;;;;1544739;77;660;-71
2022/03/14 08:30:34;;;;;;;;;;;23.60;33.90;;;;;;1544725;77;726;-70
2022/03/14 08:32:39;;;;;;;;;;;23.60;33.90;;;;;;1544519;76;1929;-70
2022/03/14 08:34:42;;;;;;;;;;;23.70;33.90;;;;;;1543558;77;1997;-71
2022/03/14 08:36:44;;;;;;;;;;;23.70;33.80;;;;;;1543166;77;715;-71
2022/03/14 08:38:47;;;;;;;;;;;23.70;33.80;;;;;;1543506;77;824;-69
2022/03/14 08:40:49;;;;;;;;;;;23.80;33.70;;;;;;1542395;76;982;-69
2022/03/14 08:42:52;;;;;;;;;;;23.70;33.70;;;;;;1543956;76;1121;-70
2022/03/14 08:44:53;;;;;;;;;;;23.80;33.60;;;;;;1544366;77;734;-69
2022/03/14 08:46:55;;;;;;;;;;;23.90;33.60;;;;;;1544690;76;773;-70
2022/03/14 08:48:57;;;;;;;;;;;23.90;33.60;;;;;;1544704;77;780;-73
2022/03/14 08:50:59;;;;;;;;;;;23.90;32.90;;;;;;1544596;76;686;-72
2022/03/14 08:53:01;;;;;;;;;;;23.90;33.00;;;;;;1544750;76;1947;-73
2022/03/14 08:55:04;;;;;;;;;;;23.80;32.40;;;;;;1544628;76;771;-73
2022/03/14 08:57:06;;;;;;;;;;;23.80;32.40;;;;;;1544736;77;766;-73
2022/03/14 08:59:11;;;;;;;;;;;23.70;31.90;;;;;;1538036;77;772;-73
2022/03/14 09:01:12;;;;;;;;;;;23.60;32.00;;;;;;1544145;76;1670;-72
2022/03/14 09:03:13;;;;;;;;;;;23.70;32.00;;;;;;1544233;76;715;-73
2022/03/14 09:05:16;;;;;;;;;;;23.70;31.90;;;;;;1544492;76;734;-73
2022/03/14 09:07:28;;;;;;;;;;;23.60;31.30;;;;;;1544311;76;680;-73
2022/03/14 09:09:30;;;;;;;;;;;23.60;31.30;;;;;;1542826;77;669;-73
2022/03/14 09:11:32;;;;;;;;;;;23.50;31.30;;;;;;1544188;76;1134;-73
2022/03/14 09:13:34;;;;;;;;;;;23.60;31.30;;;;;;1542556;77;1940;-72
2022/03/14 09:15:36;;;;;;;;;;;23.70;31.30;;;;;;1544091;77;741;-72
2022/03/14 09:17:47;;;;;;;;;;;23.70;31.00;;;;;;1544339;77;763;-73
2022/03/14 09:19:49;;;;;;;;;;;23.60;30.80;;;;;;1544348;76;760;-73
2022/03/14 09:21:57;;;;;;;;;;;23.60;30.20;;;;;;1544542;76;1146;-73
2022/03/14 09:23:55;;;;;;;;;;;23.60;30.80;;;;;;1522741;76;1685;-73
2022/03/14 09:25:57;;;;;;;;;;;23.60;30.90;;;;;;1540323;76;784;-74
2022/03/14 09:27:59;;;;;;;;;;;23.60;30.80;;;;;;1544469;76;744;-73
2022/03/14 09:30:01;;;;;;;;;;;23.50;30.70;;;;;;1544711;77;731;-73
2022/03/14 09:32:03;;;;;;;;;;;23.50;30.80;;;;;;1544604;76;1931;-73
2022/03/14 09:34:05;;;;;;;;;;;23.50;30.70;;;;;;1544510;76;731;-73
2022/03/14 09:36:07;;;;;;;;;;;23.50;30.80;;;;;;1544621;77;663;-73
2022/03/14 09:38:09;;;;;;;;;;;23.60;30.90;;;;;;1544625;76;651;-72
2022/03/14 09:40:12;;;;;;;;;;;23.50;30.90;;;;;;1544341;75;1257;-73
2022/03/14 09:42:14;;;;;;;;;;;23.50;30.90;;;;;;1572560;74;1139;-73
2022/03/14 09:44:16;;;;;;;;;;;23.60;30.80;;;;;;1572345;75;690;-70
2022/03/14 09:46:19;;;;;;;;;;;23.60;30.60;;;;;;1571428;74;776;-71
2022/03/14 09:48:21;;;;;;;;;;;23.60;30.70;;;;;;1572415;75;767;-70
2022/03/14 09:50:33;;;;;;;;;;;23.60;30.70;;;;;;1572586;75;863;-70
2022/03/14 09:52:36;;;;;;;;;;;23.60;30.90;;;;;;1571404;74;1945;-69
2022/03/14 09:54:38;;;;;;;;;;;23.60;31.00;;;;;;1571696;74;737;-69
2022/03/14 09:56:43;;;;;;;;;;;23.60;31.10;;;;;;1571835;75;739;-69
2022/03/14 09:58:45;;;;;;;;;;;23.60;31.20;;;;;;1572755;75;780;-69
2022/03/14 10:00:47;;;;;;;;;;;23.60;31.30;;;;;;1572585;75;838;-69
2022/03/14 10:02:49;;;;;;;;;;;23.60;31.30;;;;;;1572742;74;1128;-70
2022/03/14 10:04:51;;;;;;;;;;;23.60;31.40;;;;;;1572890;75;664;-69
2022/03/14 10:06:53;;;;;;;;;;;23.60;31.50;;;;;;1572720;75;765;-68
2022/03/14 10:08:54;;;;;;;;;;;23.60;31.60;;;;;;1572780;75;744;-69
2022/03/14 10:10:56;;;;;;;;;;;23.60;31.80;;;;;;1572608;75;658;-69
2022/03/14 10:12:58;;;;;;;;;;;23.60;31.80;;;;;;1572615;74;1959;-69
2022/03/14 10:15:01;;;;;;;;;;;23.60;32.00;;;;;;1569288;75;909;-70
2022/03/14 10:17:03;;;;;;;;;;;23.60;32.10;;;;;;1569746;74;747;-70
2022/03/14 10:19:09;;;;;;;;;;;23.60;32.20;;;;;;1572632;75;708;-71
2022/03/14 10:21:12;;;;;;;;;;;23.60;32.30;;;;;;1566675;75;1077;-69
2022/03/14 10:23:14;;;;;;;;;;;23.60;32.30;;;;;;1570255;74;1715;-69
2022/03/14 10:25:16;;;;;;;;;;;23.60;32.50;;;;;;1570949;74;804;-69
2022/03/14 10:27:20;;;;;;;;;;;23.60;32.60;;;;;;1572452;75;723;-70
2022/03/14 10:29:24;;;;;;;;;;;23.60;32.60;;;;;;1571534;75;745;-70
2022/03/14 10:31:30;;;;;;;;;;;23.70;32.80;;;;;;1572491;74;2165;-70
2022/03/14 10:33:33;;;;;;;;;;;23.70;32.90;;;;;;1570024;74;1929;-70
2022/03/14 10:35:35;;;;;;;;;;;23.60;32.80;;;;;;1571793;75;822;-69
2022/03/14 10:37:37;;;;;;;;;;;23.60;32.90;;;;;;1572160;75;766;-69
2022/03/14 10:39:39;;;;;;;;;;;23.70;33.10;;;;;;1572014;74;799;-69
2022/03/14 10:41:41;;;;;;;;;;;23.60;33.00;;;;;;1572727;74;1143;-70
2022/03/14 10:43:43;;;;;;;;;;;23.70;33.10;;;;;;1566280;75;807;-70
2022/03/14 10:45:45;;;;;;;;;;;23.60;33.10;;;;;;1572762;75;710;-70
2022/03/14 10:47:47;;;;;;;;;;;23.70;33.30;;;;;;1572768;75;735;-70
2022/03/14 10:49:49;;;;;;;;;;;23.60;33.20;;;;;;1572379;74;736;-69
2022/03/14 10:51:53;;;;;;;;;;;23.70;33.30;;;;;;1572666;74;1062;-70
2022/03/14 10:53:54;;;;;;;;;;;23.70;33.40;;;;;;1572522;74;1902;-69
2022/03/14 10:55:59;;;;;;;;;;;23.70;33.40;;;;;;1572474;75;713;-69
2022/03/14 10:58:03;;;;;;;;;;;23.70;33.40;;;;;;1572677;75;826;-70
2022/03/14 11:00:06;;;;;;;;;;;23.70;33.40;;;;;;1570249;74;1772;-70
2022/03/14 11:02:09;;;;;;;;;;;23.70;33.40;;;;;;1572664;74;1111;-70
2022/03/14 11:04:11;;;;;;;;;;;23.70;33.40;;;;;;1572651;75;794;-69
2022/03/14 11:06:20;;;;;;;;;;;23.60;33.40;;;;;;1572466;75;686;-69
2022/03/14 11:08:21;;;;;;;;;;;23.70;33.50;;;;;;1567493;74;1199;-70
2022/03/14 11:10:23;;;;;;;;;;;23.70;33.60;;;;;;1569284;75;1805;-69
2022/03/14 11:12:26;;;;;;;;;;;23.70;33.60;;;;;;1535167;76;1214;-69
2022/03/14 11:14:28;;;;;;;;;;;23.70;33.60;;;;;;1568203;75;1943;-70
2022/03/14 11:16:33;;;;;;;;;;;23.60;33.50;;;;;;1572492;74;768;-70
2022/03/14 11:18:35;;;;;;;;;;;23.70;33.70;;;;;;1570736;75;1717;-69
2022/03/14 11:20:38;;;;;;;;;;;23.70;33.70;;;;;;1571706;75;703;-70
2022/03/14 11:22:40;;;;;;;;;;;23.70;33.80;;;;;;1571764;74;1083;-68
2022/03/14 11:24:48;;;;;;;;;;;23.70;33.80;;;;;;1563459;74;824;-69
2022/03/14 11:26:50;;;;;;;;;;;23.70;33.90;;;;;;1572103;75;768;-69
2022/03/14 11:28:52;;;;;;;;;;;23.70;33.90;;;;;;1572407;75;855;-69
2022/03/14 11:30:58;;;;;;;;;;;23.70;33.90;;;;;;1572507;75;751;-70
2022/03/14 11:33:00;;;;;;;;;;;23.70;33.90;;;;;;1569066;74;1942;-68
2022/03/14 11:35:02;;;;;;;;;;;23.70;34.00;;;;;;1571904;75;797;-70
2022/03/14 11:37:04;;;;;;;;;;;23.70;34.00;;;;;;1572547;75;835;-69
2022/03/14 11:39:06;;;;;;;;;;;23.80;34.00;;;;;;1574770;75;625;-70
2022/03/14 11:41:08;;;;;;;;;;;23.80;34.10;;;;;;1572577;74;788;-70
2022/03/14 11:43:10;;;;;;;;;;;23.80;34.10;;;;;;1573933;75;1176;-70
2022/03/14 11:45:12;;;;;;;;;;;23.90;34.20;;;;;;1572779;75;738;-70
2022/03/14 11:47:14;;;;;;;;;;;23.80;34.20;;;;;;1572992;75;801;-70
2022/03/14 11:49:16;;;;;;;;;;;23.80;34.40;;;;;;1569213;74;789;-69
2022/03/14 11:51:20;;;;;;;;;;;23.80;34.50;;;;;;1572919;74;1102;-69
2022/03/14 11:53:23;;;;;;;;;;;23.80;34.80;;;;;;1572778;75;1924;-68
2022/03/14 11:55:27;;;;;;;;;;;23.80;34.90;;;;;;1572685;74;784;-69
2022/03/14 11:57:37;;;;;;;;;;;23.80;35.00;;;;;;1572888;75;722;-69
2022/03/14 11:59:36;;;;;;;;;;;23.80;35.10;;;;;;1572500;75;1247;-69
2022/03/14 12:01:51;;;;;;;;;;;23.90;35.40;;;;;;1573956;74;1126;-69
2022/03/14 12:03:53;;;;;;;;;;;23.90;35.50;;;;;;1571435;75;913;-69
2022/03/14 12:05:55;;;;;;;;;;;23.80;35.50;;;;;;1572515;75;698;-69
2022/03/14 12:07:57;;;;;;;;;;;23.90;35.60;;;;;;1572953;74;757;-69
2022/03/14 12:10:00;;;;;;;;;;;23.80;35.50;;;;;;1572607;75;744;-69